Terminal Aerodrome Forecast
Issued by NWS Atlanta, GA

Home | Current Version | Previous Version | Text Only | Print | Product List | Glossary On
Versions: 1 2 3 4 5 6 7 8 9 10 11 12 13 14 15 16 17
000
FTUS42 KFFC 290520
TAFMCN
TAF
KMCN 290520Z 2906/3006 08005KT P6SM SCT015 BKN035 OVC250
     FM290900 08004KT 6SM BR SCT008 BKN015 OVC150
     FM291400 09005KT P6SM VCSH BKN025 OVC150
     FM291800 09006KT P6SM -SHRA SCT025 BKN050 OVC150
     FM300000 VRB03KT P6SM VCSH SCT035 BKN050 OVC100=

USA.gov is the U.S. government's official web portal to all federal, state and local government web resources and services.